createdAt,value
2018-03-15T00:01:02.432Z,99.90
2018-03-15T00:03:37.020Z,99.90
2018-03-15T00:06:11.795Z,99.90
2018-03-15T00:08:46.498Z,99.90
2018-03-15T00:11:21.932Z,99.90
2018-03-15T00:13:56.688Z,99.90
2018-03-15T00:16:31.543Z,99.90
2018-03-15T00:19:06.220Z,99.90
2018-03-15T00:21:41.256Z,99.90
2018-03-15T00:24:16.339Z,99.90
2018-03-15T00:26:50.851Z,99.90
2018-03-15T00:29:25.514Z,99.90
2018-03-15T00:32:00.382Z,99.90
2018-03-15T00:34:35.123Z,99.90
2018-03-15T00:37:09.634Z,99.90
2018-03-15T00:39:44.240Z,99.90
2018-03-15T00:42:19.037Z,99.90
2018-03-15T00:44:53.812Z,99.90
2018-03-15T00:47:28.477Z,99.90
2018-03-15T00:49:58.906Z,99.90
2018-03-15T00:52:33.399Z,99.90
2018-03-15T00:55:07.964Z,99.90
2018-03-15T00:57:42.475Z,99.90
2018-03-15T01:00:16.875Z,99.90
2018-03-15T01:02:51.559Z,99.90
2018-03-15T01:05:26.189Z,99.90
2018-03-15T01:08:01.226Z,99.90
2018-03-15T01:10:35.847Z,99.90
2018-03-15T01:13:10.463Z,99.90
2018-03-15T01:15:45.956Z,99.90
2018-03-15T01:18:22.132Z,99.90
2018-03-15T01:20:58.272Z,99.90
2018-03-15T01:23:32.981Z,99.90
2018-03-15T01:26:07.555Z,99.90
2018-03-15T01:28:42.305Z,99.90
2018-03-15T01:31:16.890Z,99.90
2018-03-15T01:33:51.566Z,99.90
2018-03-15T01:36:26.399Z,99.90
2018-03-15T01:39:02.027Z,99.90
2018-03-15T01:41:37.342Z,99.90
2018-03-15T01:44:11.913Z,99.90
2018-03-15T01:46:46.490Z,99.90
2018-03-15T01:49:21.156Z,99.90
2018-03-15T01:51:56.030Z,99.90
2018-03-15T01:54:30.863Z,99.90
2018-03-15T01:57:06.439Z,99.90
2018-03-15T01:59:41.014Z,99.90
2018-03-15T02:02:15.721Z,99.90
2018-03-15T02:04:50.302Z,99.90
2018-03-15T02:07:25.005Z,99.90
2018-03-15T02:09:59.653Z,99.90
2018-03-15T02:12:35.084Z,99.90
2018-03-15T02:15:09.641Z,99.90
2018-03-15T02:17:44.473Z,99.90
2018-03-15T02:20:19.167Z,99.90
2018-03-15T02:22:54.055Z,99.90
2018-03-15T02:25:28.561Z,99.90
2018-03-15T02:28:05.351Z,99.90
2018-03-15T02:30:40.016Z,99.90
2018-03-15T02:33:14.674Z,99.90
2018-03-15T02:35:49.295Z,99.90
2018-03-15T02:38:24.841Z,99.90
2018-03-15T02:40:59.462Z,99.90
2018-03-15T02:43:34.935Z,99.90
2018-03-15T02:46:10.053Z,99.90
2018-03-15T02:48:45.751Z,99.90
2018-03-15T02:51:20.469Z,99.90
2018-03-15T02:53:55.310Z,99.90
2018-03-15T02:56:30.072Z,99.90
2018-03-15T02:59:04.662Z,99.90
2018-03-15T03:01:39.346Z,99.90
2018-03-15T03:04:13.932Z,99.90
2018-03-15T03:06:48.508Z,99.90
2018-03-15T03:09:23.557Z,99.90
2018-03-15T03:12:01.442Z,99.90
2018-03-15T03:14:35.904Z,99.90
2018-03-15T03:17:10.880Z,99.90
2018-03-15T03:19:45.622Z,99.90
2018-03-15T03:22:20.330Z,99.90
2018-03-15T03:24:55.040Z,99.90
2018-03-15T03:27:32.713Z,99.90
2018-03-15T03:30:07.416Z,99.90
2018-03-15T03:32:42.701Z,99.90
2018-03-15T03:35:18.284Z,99.90
2018-03-15T03:37:53.008Z,99.90
2018-03-15T03:40:27.533Z,99.90
2018-03-15T03:43:02.145Z,99.90
2018-03-15T03:45:37.899Z,99.90
2018-03-15T03:48:12.526Z,99.90
2018-03-15T03:50:47.232Z,99.90
2018-03-15T03:53:22.659Z,99.90
2018-03-15T03:55:57.460Z,99.90
2018-03-15T03:58:31.983Z,99.90
2018-03-15T04:01:06.193Z,99.90
2018-03-15T04:03:40.868Z,99.90
2018-03-15T04:06:15.716Z,99.90
2018-03-15T04:08:50.625Z,99.90
2018-03-15T04:11:26.280Z,99.90
2018-03-15T04:14:01.048Z,99.90
2018-03-15T04:16:35.605Z,99.90
2018-03-15T04:19:10.481Z,99.90
2018-03-15T04:21:45.134Z,99.90
2018-03-15T04:24:19.800Z,99.90
2018-03-15T04:26:54.512Z,99.90
2018-03-15T04:29:29.886Z,99.90
2018-03-15T04:32:04.516Z,99.90
2018-03-15T04:34:39.213Z,99.90
2018-03-15T04:37:13.824Z,99.90
2018-03-15T04:39:48.375Z,99.90
2018-03-15T04:42:23.029Z,99.90
2018-03-15T04:44:57.757Z,99.90
2018-03-15T04:47:32.295Z,99.90
2018-03-15T04:50:07.732Z,99.90
2018-03-15T04:52:42.426Z,99.90
2018-03-15T04:55:17.817Z,99.90
2018-03-15T04:57:52.465Z,99.90
2018-03-15T05:00:27.263Z,99.90
2018-03-15T05:03:02.564Z,99.90
2018-03-15T05:05:38.152Z,99.90
2018-03-15T05:08:12.777Z,99.90
2018-03-15T05:10:47.375Z,99.90
2018-03-15T05:13:22.227Z,99.90
2018-03-15T05:15:56.722Z,99.90
2018-03-15T05:18:31.309Z,99.90
2018-03-15T05:21:05.923Z,99.90
2018-03-15T05:23:40.490Z,99.90
2018-03-15T05:26:15.167Z,99.90
2018-03-15T05:28:49.701Z,99.90
2018-03-15T05:31:24.217Z,99.90
2018-03-15T05:33:58.890Z,99.90
2018-03-15T05:36:33.356Z,99.90
2018-03-15T05:39:08.812Z,99.90
2018-03-15T05:41:43.420Z,99.90
2018-03-15T05:44:17.967Z,99.90
2018-03-15T05:46:52.553Z,99.90
2018-03-15T05:49:27.101Z,99.90
2018-03-15T05:52:01.728Z,99.90
2018-03-15T05:54:36.532Z,99.90
2018-03-15T05:57:10.758Z,99.90
2018-03-15T05:59:45.270Z,99.90
2018-03-15T06:02:19.928Z,99.90
2018-03-15T06:04:56.162Z,99.90
2018-03-15T06:07:30.925Z,99.90
2018-03-15T06:10:05.872Z,99.90
2018-03-15T06:12:41.354Z,99.90
2018-03-15T06:15:16.044Z,99.90
2018-03-15T06:17:50.718Z,99.90
2018-03-15T06:20:25.306Z,99.90
2018-03-15T06:22:59.834Z,99.90
2018-03-15T06:25:36.341Z,99.90
2018-03-15T06:28:10.962Z,99.90
2018-03-15T06:30:45.478Z,99.90
2018-03-15T06:33:20.781Z,99.90
2018-03-15T06:35:55.311Z,99.90
2018-03-15T06:38:29.906Z,99.90
2018-03-15T06:41:04.593Z,99.90
2018-03-15T06:43:38.934Z,99.90
2018-03-15T06:46:13.579Z,99.90
2018-03-15T06:48:48.381Z,99.90
2018-03-15T06:51:22.890Z,99.90
2018-03-15T06:53:57.406Z,99.90
2018-03-15T06:56:32.153Z,99.90
2018-03-15T06:59:06.777Z,99.90
2018-03-15T07:01:41.504Z,99.90
2018-03-15T07:04:16.125Z,99.90
2018-03-15T07:06:50.766Z,99.90
2018-03-15T07:09:20.636Z,99.90
2018-03-15T07:11:49.816Z,99.90
2018-03-15T07:14:18.857Z,99.90
2018-03-15T07:16:48.640Z,99.90
2018-03-15T07:19:18.514Z,99.90
2018-03-15T07:21:47.590Z,99.90
2018-03-15T07:24:22.374Z,99.90
2018-03-15T07:26:56.956Z,99.90
2018-03-15T07:29:31.619Z,99.90
2018-03-15T07:32:06.201Z,99.90
2018-03-15T07:34:40.629Z,99.90
2018-03-15T07:37:15.200Z,99.90
2018-03-15T07:39:49.823Z,99.90
2018-03-15T07:42:24.690Z,99.90
2018-03-15T07:44:59.379Z,99.90
2018-03-15T07:47:34.063Z,99.90
2018-03-15T07:50:08.416Z,99.90
2018-03-15T07:52:42.946Z,99.90
2018-03-15T07:55:18.294Z,99.90
2018-03-15T07:57:52.903Z,99.90
2018-03-15T08:00:27.455Z,99.90
2018-03-15T08:03:02.192Z,99.90
2018-03-15T08:05:36.952Z,99.90
2018-03-15T08:08:11.666Z,99.90
2018-03-15T08:10:46.408Z,99.90
2018-03-15T08:13:20.934Z,99.90
2018-03-15T08:15:55.519Z,99.90
2018-03-15T08:18:30.835Z,99.90
2018-03-15T08:21:05.346Z,99.90
2018-03-15T08:23:40.796Z,99.90
2018-03-15T08:26:15.321Z,99.90
2018-03-15T08:28:49.930Z,99.90
2018-03-15T08:31:25.444Z,99.90
2018-03-15T08:34:00.313Z,99.90
2018-03-15T08:36:34.696Z,99.90
2018-03-15T08:39:09.460Z,99.90
2018-03-15T08:41:44.021Z,99.90
2018-03-15T08:44:18.734Z,99.90
2018-03-15T08:46:53.358Z,99.90
2018-03-15T08:49:27.690Z,99.90
2018-03-15T08:52:03.000Z,99.90
2018-03-15T08:54:37.604Z,99.90
2018-03-15T08:57:12.063Z,99.90
2018-03-15T08:59:48.181Z,99.90
2018-03-15T09:02:22.905Z,99.90
2018-03-15T09:04:58.270Z,99.90
2018-03-15T09:07:32.967Z,99.90
2018-03-15T09:10:07.305Z,99.90
2018-03-15T09:12:42.762Z,99.90
2018-03-15T09:15:17.520Z,99.90
2018-03-15T09:17:52.117Z,99.90
2018-03-15T09:20:26.747Z,99.90
2018-03-15T09:23:02.071Z,99.90
2018-03-15T09:25:36.707Z,99.90
2018-03-15T09:28:11.369Z,99.90
2018-03-15T09:30:45.889Z,99.90
2018-03-15T09:33:21.402Z,99.90
2018-03-15T09:35:56.324Z,99.90
2018-03-15T09:38:31.034Z,99.90
2018-03-15T09:41:05.779Z,99.90
2018-03-15T09:43:40.468Z,99.90
2018-03-15T09:46:15.425Z,99.90
2018-03-15T09:48:51.179Z,99.90
2018-03-15T09:51:25.908Z,99.90
2018-03-15T09:54:01.467Z,99.90
2018-03-15T09:56:37.249Z,99.90
2018-03-15T09:59:12.266Z,99.90
2018-03-15T10:01:47.943Z,99.90
2018-03-15T10:04:22.727Z,99.90
2018-03-15T10:06:57.419Z,99.90
2018-03-15T10:09:32.286Z,99.90
2018-03-15T10:12:07.908Z,99.90
2018-03-15T10:14:44.129Z,99.90
2018-03-15T10:17:18.875Z,99.90
2018-03-15T10:19:53.514Z,99.90
2018-03-15T10:22:28.437Z,99.90
2018-03-15T10:25:13.607Z,99.90
2018-03-15T10:27:37.895Z,99.90
2018-03-15T10:30:12.530Z,99.90
2018-03-15T10:35:50.223Z,97.00
2018-03-15T10:38:24.965Z,97.10
2018-03-15T10:41:00.548Z,94.60
2018-03-15T10:43:35.468Z,94.50
2018-03-15T10:46:10.254Z,94.20
2018-03-15T10:48:45.119Z,95.00
2018-03-15T10:51:20.056Z,95.10
2018-03-15T10:53:54.992Z,88.10
2018-03-15T10:56:29.775Z,90.90
2018-03-15T10:59:04.360Z,85.50
2018-03-15T11:01:44.700Z,83.20
2018-03-15T11:04:34.720Z,76.30
2018-03-15T11:07:26.153Z,76.30
2018-03-15T11:10:00.889Z,75.60
2018-03-15T11:12:35.735Z,77.80
2018-03-15T11:15:10.640Z,81.20
2018-03-15T11:17:45.604Z,77.50
2018-03-15T11:20:21.161Z,68.80
2018-03-15T11:22:55.892Z,69.00
2018-03-15T11:25:30.791Z,67.90
2018-03-15T11:28:05.557Z,66.90
2018-03-15T11:30:40.996Z,67.90
2018-03-15T11:33:16.080Z,67.80
2018-03-15T11:35:51.566Z,67.20
2018-03-15T11:38:27.074Z,67.50
2018-03-15T11:41:02.562Z,65.80
2018-03-15T11:43:37.500Z,65.20
2018-03-15T11:46:12.405Z,66.70
2018-03-15T11:48:47.092Z,64.30
2018-03-15T11:51:22.028Z,65.20
2018-03-15T11:53:57.088Z,62.90
2018-03-15T11:56:32.571Z,68.00
2018-03-15T11:59:08.121Z,59.00
2018-03-15T12:01:42.970Z,59.10
2018-03-15T12:04:17.965Z,60.00
2018-03-15T12:06:52.834Z,61.30
2018-03-15T12:09:28.846Z,61.40
2018-03-15T12:12:04.407Z,62.00
2018-03-15T12:14:39.143Z,62.00
2018-03-15T12:17:13.974Z,62.80
2018-03-15T12:19:48.838Z,62.60
2018-03-15T12:22:24.234Z,65.00
2018-03-15T12:24:59.611Z,62.50
2018-03-15T12:27:34.148Z,62.50
2018-03-15T12:30:09.608Z,66.30
2018-03-15T12:32:45.084Z,62.70
2018-03-15T12:35:19.612Z,62.40
2018-03-15T12:37:54.181Z,65.30
2018-03-15T12:40:29.760Z,63.00
2018-03-15T12:43:04.408Z,63.00
2018-03-15T12:45:39.075Z,65.00
2018-03-15T12:48:13.759Z,67.90
2018-03-15T12:50:48.290Z,63.60
2018-03-15T12:53:23.102Z,65.80
2018-03-15T12:55:57.746Z,61.20
2018-03-15T12:58:32.453Z,63.40
2018-03-15T13:01:01.353Z,62.90
2018-03-15T13:03:30.636Z,61.70
2018-03-15T13:05:59.869Z,59.50
2018-03-15T13:08:29.007Z,62.40
2018-03-15T13:10:58.235Z,64.10
2018-03-15T13:13:27.454Z,68.00
2018-03-15T13:15:57.255Z,64.80
2018-03-15T13:18:26.141Z,64.90
2018-03-15T13:21:00.709Z,64.00
2018-03-15T13:23:35.195Z,59.90
2018-03-15T13:26:09.736Z,60.80
2018-03-15T13:28:44.445Z,65.40
2018-03-15T13:31:18.963Z,67.30
2018-03-15T13:33:53.496Z,68.40
2018-03-15T13:36:28.234Z,67.40
2018-03-15T13:39:02.856Z,70.00
2018-03-15T13:41:37.414Z,70.60
2018-03-15T13:44:07.980Z,72.00
2018-03-15T13:46:38.531Z,74.70
2018-03-15T13:49:07.619Z,74.70
2018-03-15T13:51:36.739Z,74.30
2018-03-15T13:54:05.090Z,74.50
2018-03-15T13:56:34.244Z,72.50
2018-03-15T13:59:03.197Z,69.40
2018-03-15T14:01:32.140Z,75.30
2018-03-15T14:04:07.595Z,69.80
2018-03-15T14:06:42.279Z,66.20
2018-03-15T14:09:16.953Z,72.70
2018-03-15T14:11:51.551Z,70.70
2018-03-15T14:14:26.874Z,66.40
2018-03-15T14:17:01.679Z,67.60
2018-03-15T14:19:36.475Z,63.90
2018-03-15T14:22:05.372Z,71.30
2018-03-15T14:24:39.975Z,67.30
2018-03-15T14:27:09.034Z,68.10
2018-03-15T14:29:44.363Z,68.50
2018-03-15T14:32:19.142Z,68.40
2018-03-15T14:34:53.839Z,69.50
2018-03-15T14:37:28.211Z,65.50
2018-03-15T14:40:02.975Z,63.90
2018-03-15T14:42:32.877Z,63.30
2018-03-15T14:45:07.488Z,63.40
2018-03-15T14:47:42.162Z,63.30
2018-03-15T14:50:16.734Z,59.20
2018-03-15T14:52:46.646Z,59.90
2018-03-15T14:55:21.456Z,57.10
2018-03-15T14:57:56.111Z,56.70
2018-03-15T15:00:30.871Z,58.80
2018-03-15T15:03:05.232Z,56.40
2018-03-15T15:05:40.345Z,56.70
2018-03-15T15:08:15.194Z,56.70
2018-03-15T15:10:51.281Z,56.50
2018-03-15T15:13:25.995Z,56.40
2018-03-15T15:16:01.662Z,56.60
2018-03-15T15:18:36.311Z,56.60
2018-03-15T15:21:10.891Z,59.40
2018-03-15T15:23:45.894Z,58.40
2018-03-15T15:26:20.655Z,57.80
2018-03-15T15:28:55.312Z,59.00
2018-03-15T15:31:30.201Z,58.90
2018-03-15T15:34:05.336Z,58.40
2018-03-15T15:36:40.096Z,59.80
2018-03-15T15:39:14.713Z,62.20
2018-03-15T15:41:50.188Z,58.80
2018-03-15T15:44:24.899Z,58.80
2018-03-15T15:46:59.477Z,61.20
2018-03-15T15:49:34.180Z,59.10
2018-03-15T15:52:08.757Z,60.00
2018-03-15T15:54:43.371Z,59.30
2018-03-15T15:57:17.914Z,57.80
2018-03-15T15:59:53.344Z,62.00
2018-03-15T16:02:28.832Z,59.70
2018-03-15T16:05:03.972Z,64.20
2018-03-15T16:07:38.730Z,64.00
2018-03-15T16:10:13.205Z,65.40
2018-03-15T16:12:47.808Z,62.10
2018-03-15T16:15:22.395Z,62.20
2018-03-15T16:17:57.749Z,63.20
2018-03-15T16:20:33.025Z,66.70
2018-03-15T16:23:07.814Z,66.90
2018-03-15T16:25:42.340Z,65.80
2018-03-15T16:28:17.886Z,67.10
2018-03-15T16:30:52.582Z,67.00
2018-03-15T16:33:27.212Z,69.70
2018-03-15T16:36:01.767Z,72.90
2018-03-15T16:38:37.100Z,72.00
2018-03-15T16:41:11.802Z,72.00
2018-03-15T16:43:46.366Z,74.20
2018-03-15T16:46:21.174Z,81.70
2018-03-15T16:48:55.932Z,77.90
2018-03-15T16:51:31.613Z,78.30
2018-03-15T16:54:06.563Z,78.30
2018-03-15T16:56:41.252Z,82.90
2018-03-15T16:59:15.883Z,88.70
2018-03-15T17:01:51.464Z,91.60
2018-03-15T17:04:26.147Z,91.50
2018-03-15T17:07:00.893Z,91.60
2018-03-15T17:09:35.718Z,91.50
2018-03-15T17:12:10.996Z,91.80
2018-03-15T17:14:45.844Z,94.20
2018-03-15T17:17:20.485Z,94.00
2018-03-15T17:19:55.207Z,94.00
2018-03-15T17:22:30.174Z,92.30
2018-03-15T17:25:05.148Z,93.70
2018-03-15T17:27:39.794Z,95.50
2018-03-15T17:30:14.461Z,94.50
2018-03-15T17:32:49.392Z,95.10
2018-03-15T17:35:24.581Z,97.00
2018-03-15T17:38:00.272Z,96.80
2018-03-15T17:40:34.947Z,96.80
2018-03-15T17:43:10.037Z,95.90
2018-03-15T17:45:45.611Z,94.10
2018-03-15T17:48:20.989Z,94.90
2018-03-15T17:50:56.219Z,95.60
2018-03-15T17:53:31.783Z,96.80
2018-03-15T17:56:08.052Z,96.80
2018-03-15T17:58:42.901Z,96.80
2018-03-15T18:01:18.315Z,98.00
2018-03-15T18:03:53.230Z,97.90
2018-03-15T18:06:28.047Z,98.40
2018-03-15T18:09:03.131Z,98.20
2018-03-15T18:11:37.909Z,98.10
2018-03-15T18:14:12.662Z,94.00
2018-03-15T18:16:47.413Z,94.70
2018-03-15T18:19:22.026Z,93.90
2018-03-15T18:21:57.314Z,92.70
2018-03-15T18:24:32.972Z,90.60
2018-03-15T18:27:07.486Z,90.30
2018-03-15T18:29:42.208Z,90.50
2018-03-15T18:32:16.955Z,91.70
2018-03-15T18:34:46.272Z,96.90
2018-03-15T18:37:15.341Z,99.90
2018-03-15T18:39:44.358Z,99.90
2018-03-15T18:42:13.493Z,99.90
2018-03-15T18:44:43.300Z,99.90
2018-03-15T18:47:12.286Z,99.90
2018-03-15T18:49:42.096Z,99.90
2018-03-15T18:52:11.738Z,99.90
2018-03-15T18:54:41.580Z,99.90
2018-03-15T18:57:11.316Z,99.90
2018-03-15T18:59:41.029Z,99.90
2018-03-15T19:02:09.937Z,99.90
2018-03-15T19:04:39.617Z,99.90
2018-03-15T19:07:10.425Z,99.90
2018-03-15T19:09:45.096Z,99.90
2018-03-15T19:12:19.742Z,99.90
2018-03-15T19:14:48.633Z,99.90
2018-03-15T19:17:18.547Z,99.90
2018-03-15T19:19:48.378Z,99.90
2018-03-15T19:22:17.288Z,99.90
2018-03-15T19:24:46.290Z,99.90
2018-03-15T19:27:16.673Z,99.90
2018-03-15T19:29:46.852Z,99.90
2018-03-15T19:32:16.650Z,99.90
2018-03-15T19:34:47.459Z,99.90
2018-03-15T19:37:17.457Z,99.90
2018-03-15T19:39:53.179Z,99.90
2018-03-15T19:42:28.075Z,99.90
2018-03-15T19:44:57.837Z,99.90
2018-03-15T19:47:27.005Z,99.90
2018-03-15T19:49:57.606Z,99.90
2018-03-15T19:52:27.620Z,99.90
2018-03-15T19:54:56.810Z,99.90
2018-03-15T19:57:25.972Z,99.90
2018-03-15T19:59:55.936Z,99.90
2018-03-15T20:02:25.114Z,99.90
2018-03-15T20:04:55.131Z,99.90
2018-03-15T20:07:25.937Z,99.90
2018-03-15T20:09:55.920Z,99.90
2018-03-15T20:12:24.954Z,99.90
2018-03-15T20:14:54.005Z,99.90
2018-03-15T20:17:23.269Z,99.90
2018-03-15T20:19:52.577Z,99.90
2018-03-15T20:22:27.106Z,99.90
2018-03-15T20:24:56.495Z,99.90
2018-03-15T20:27:31.080Z,99.90
2018-03-15T20:30:00.150Z,99.90
2018-03-15T20:32:34.848Z,99.90
2018-03-15T20:35:09.635Z,99.90
2018-03-15T20:37:44.194Z,99.90
2018-03-15T20:40:20.554Z,99.90
2018-03-15T20:42:49.745Z,99.90
2018-03-15T20:45:29.904Z,99.90
2018-03-15T20:48:05.271Z,99.90
2018-03-15T20:50:39.983Z,99.90
2018-03-15T20:53:14.706Z,99.90
2018-03-15T20:55:50.966Z,99.90
2018-03-15T20:58:26.627Z,99.90
2018-03-15T21:01:01.881Z,99.90
2018-03-15T21:03:36.658Z,99.90
2018-03-15T21:06:12.045Z,99.90
2018-03-15T21:08:46.567Z,99.90
2018-03-15T21:11:22.628Z,99.90
2018-03-15T21:13:52.524Z,99.90
2018-03-15T21:16:27.401Z,99.90
2018-03-15T21:19:02.128Z,99.90
2018-03-15T21:21:37.082Z,99.90
2018-03-15T21:24:11.814Z,99.90
2018-03-15T21:26:46.444Z,99.90
2018-03-15T21:29:21.317Z,99.90
2018-03-15T21:31:56.172Z,99.90
2018-03-15T21:34:30.761Z,99.90
2018-03-15T21:37:05.417Z,99.90
2018-03-15T21:39:39.990Z,99.90
2018-03-15T21:42:14.534Z,99.90
2018-03-15T21:44:49.152Z,99.90
2018-03-15T21:47:23.804Z,99.90
2018-03-15T21:49:59.332Z,99.90
2018-03-15T21:52:33.874Z,99.90
2018-03-15T21:55:08.579Z,99.90
2018-03-15T21:57:44.013Z,99.90
2018-03-15T22:00:18.563Z,99.90
2018-03-15T22:02:53.235Z,99.90
2018-03-15T22:05:27.799Z,99.90
2018-03-15T22:08:02.364Z,99.90
2018-03-15T22:10:37.825Z,99.90
2018-03-15T22:13:12.508Z,99.90
2018-03-15T22:15:47.170Z,99.90
2018-03-15T22:18:21.796Z,99.90
2018-03-15T22:20:56.577Z,99.90
2018-03-15T22:23:31.375Z,99.90
2018-03-15T22:26:06.884Z,99.90
2018-03-15T22:28:41.569Z,99.90
2018-03-15T22:31:16.228Z,99.90
2018-03-15T22:33:51.724Z,99.90
2018-03-15T22:36:26.377Z,99.90
2018-03-15T22:39:00.919Z,99.90
2018-03-15T22:41:35.415Z,99.90
2018-03-15T22:44:10.319Z,99.90
2018-03-15T22:46:45.437Z,99.90
2018-03-15T22:49:20.036Z,99.90
2018-03-15T22:51:54.848Z,99.90
2018-03-15T22:54:29.521Z,99.90
2018-03-15T22:57:04.073Z,99.90
2018-03-15T22:59:39.551Z,99.90
2018-03-15T23:02:14.228Z,99.90
2018-03-15T23:04:49.012Z,99.90
2018-03-15T23:07:23.601Z,99.90
2018-03-15T23:09:58.445Z,99.90
2018-03-15T23:12:32.933Z,99.90
2018-03-15T23:15:07.707Z,99.90
2018-03-15T23:17:42.413Z,99.90
2018-03-15T23:20:17.157Z,99.90
2018-03-15T23:22:51.797Z,99.90
2018-03-15T23:25:26.272Z,99.90
2018-03-15T23:28:01.033Z,99.90
2018-03-15T23:30:35.793Z,99.90
2018-03-15T23:33:10.596Z,99.90
2018-03-15T23:35:45.336Z,99.90
2018-03-15T23:38:19.888Z,99.90
2018-03-15T23:40:54.551Z,99.90
2018-03-15T23:43:30.017Z,99.90
2018-03-15T23:46:04.680Z,99.90
2018-03-15T23:48:39.316Z,99.90
2018-03-15T23:51:13.885Z,99.90
2018-03-15T23:53:48.622Z,99.90
2018-03-15T23:56:23.390Z,99.90
2018-03-15T23:58:57.940Z,99.90
